Cherrygrove, North Carolina
Current Conditions -  °F | °C
As of 9:35 AM on Sunday 23 Nov 2014 (Local Time) from KSIF Reporting Station
Broken Clouds Broken Clouds  
Wind Chill: 41°   Ceiling: 2300
Heat Index: 41°   Visibility: 10mi
Dew Point: 30°   Wind: 0mph
Humidity: 65%   Direction: NA
Pressure: 30.22"   Gusts: NA
Location:  36.3355°N, 79.6561°W
Report Text: KSIF 231435Z AUTO 00000KT 10SM BKN023 05/M01 A3022 RMK AO2 T00521009
Loading
Personal Weather Stations






























Interactive Weather Map New forecast layout! Learn more

10-Day Weather Forecast

Advertisements
Track Severe Weather on mobile